createdAt,value
2022-07-29T00:01:47.420Z,100428.83
2022-07-29T00:04:19.818Z,100427.18
2022-07-29T00:06:53.964Z,100430.44
2022-07-29T00:09:33.481Z,100433.17
2022-07-29T00:12:26.289Z,100432.36
2022-07-29T00:14:59.502Z,100432.84
2022-07-29T00:17:31.589Z,100432.15
2022-07-29T00:20:00.561Z,100432.52
2022-07-29T00:22:31.569Z,100431.11
2022-07-29T00:25:00.616Z,100433.65
2022-07-29T00:27:28.787Z,100436.12
2022-07-29T00:29:58.174Z,100436.17
2022-07-29T00:32:26.006Z,100434.42
2022-07-29T00:35:13.131Z,100432.14
2022-07-29T00:37:41.130Z,100428.54
2022-07-29T00:40:09.789Z,100426.43
2022-07-29T00:42:51.974Z,100417.55
2022-07-29T00:45:23.313Z,100422.34
2022-07-29T00:47:51.658Z,100427.73
2022-07-29T00:50:20.073Z,100427.41
2022-07-29T00:52:48.588Z,100424.79
2022-07-29T00:55:17.005Z,100420.02
2022-07-29T00:57:47.493Z,100423.02
2022-07-29T01:00:19.580Z,100422.55
2022-07-29T01:02:49.439Z,100415.40
2022-07-29T01:05:24.135Z,100424.95
2022-07-29T01:07:55.470Z,100425.30
2022-07-29T01:10:24.616Z,100420.60
2022-07-29T01:12:56.205Z,100417.08
2022-07-29T01:15:25.072Z,100422.23
2022-07-29T01:18:08.998Z,100423.20
2022-07-29T01:20:46.196Z,100421.45
2022-07-29T01:23:35.221Z,100423.96
2022-07-29T01:26:29.779Z,100422.64
2022-07-29T01:29:09.545Z,100421.78
2022-07-29T01:31:53.836Z,100417.17
2022-07-29T01:34:55.523Z,100416.20
2022-07-29T01:37:26.466Z,100415.41
2022-07-29T01:39:58.542Z,100413.08
2022-07-29T01:42:37.853Z,100416.09
2022-07-29T01:45:12.173Z,100414.48
2022-07-29T01:47:46.515Z,100415.65
2022-07-29T01:50:18.584Z,100408.66
2022-07-29T01:52:57.931Z,100409.59
2022-07-29T01:55:30.781Z,100409.44
2022-07-29T01:58:01.264Z,100410.51
2022-07-29T02:00:31.473Z,100406.95
2022-07-29T02:03:06.905Z,100398.39
2022-07-29T02:05:37.073Z,100399.90
2022-07-29T02:08:07.549Z,100396.84
2022-07-29T02:10:36.652Z,100398.97
2022-07-29T02:13:06.788Z,100394.56
2022-07-29T02:15:37.225Z,100390.10
2022-07-29T02:18:16.899Z,100389.84
2022-07-29T02:20:53.818Z,100390.88
2022-07-29T02:23:25.056Z,100385.79
2022-07-29T02:25:57.681Z,100386.89
2022-07-29T02:28:28.707Z,100385.29
2022-07-29T02:31:00.869Z,100389.77
2022-07-29T02:33:31.877Z,100392.30
2022-07-29T02:36:03.532Z,100391.02
2022-07-29T02:38:51.442Z,100396.42
2022-07-29T02:41:25.427Z,100395.23
2022-07-29T02:43:58.285Z,100392.42
2022-07-29T02:46:34.049Z,100396.63
2022-07-29T02:49:14.660Z,100399.58
2022-07-29T02:51:46.899Z,100401.27
2022-07-29T02:54:30.082Z,100399.09
2022-07-29T02:57:01.837Z,100394.34
2022-07-29T02:59:35.371Z,100394.73
2022-07-29T03:02:05.917Z,100393.95
2022-07-29T03:04:35.589Z,100393.92
2022-07-29T03:07:04.784Z,100396.39
2022-07-29T03:09:33.227Z,100400.31
2022-07-29T03:12:02.403Z,100400.88
2022-07-29T03:14:31.438Z,100399.44
2022-07-29T03:16:59.721Z,100402.71
2022-07-29T03:19:28.730Z,100402.95
2022-07-29T03:21:58.298Z,100404.51
2022-07-29T03:24:28.128Z,100404.46
2022-07-29T03:26:57.586Z,100403.66
2022-07-29T03:29:34.093Z,100408.38
2022-07-29T03:32:08.322Z,100408.56
2022-07-29T03:34:39.015Z,100409.11
2022-07-29T03:37:08.474Z,100405.05
2022-07-29T03:39:43.310Z,100411.88
2022-07-29T03:42:15.311Z,100410.45
2022-07-29T03:44:46.696Z,100411.39
2022-07-29T03:47:16.462Z,100417.34
2022-07-29T03:49:47.678Z,100415.04
2022-07-29T03:52:16.064Z,100415.84
2022-07-29T03:54:44.484Z,100417.08
2022-07-29T03:57:13.261Z,100419.73
2022-07-29T03:59:44.046Z,100422.08
2022-07-29T04:02:14.638Z,100422.39
2022-07-29T04:04:46.728Z,100419.17
2022-07-29T04:07:15.763Z,100419.12
2022-07-29T04:09:43.848Z,100421.79
2022-07-29T04:12:12.992Z,100416.56
2022-07-29T04:14:41.042Z,100418.55
2022-07-29T04:17:09.021Z,100417.03
2022-07-29T04:19:37.255Z,100413.83
2022-07-29T04:22:05.730Z,100415.01
2022-07-29T04:24:36.653Z,100416.03
2022-07-29T04:27:06.693Z,100411.73
2022-07-29T04:29:34.474Z,100410.59
2022-07-29T04:32:02.349Z,100410.89
2022-07-29T04:34:30.567Z,100409.64
2022-07-29T04:36:58.555Z,100403.30
2022-07-29T04:39:29.646Z,100403.71
2022-07-29T04:41:59.332Z,100402.60
2022-07-29T04:44:28.942Z,100401.95
2022-07-29T04:46:57.841Z,100405.90
2022-07-29T04:49:27.348Z,100405.63
2022-07-29T04:51:55.790Z,100404.97
2022-07-29T04:54:23.993Z,100399.11
2022-07-29T04:56:54.140Z,100402.15
2022-07-29T04:59:22.254Z,100404.95
2022-07-29T05:01:50.954Z,100407.27
2022-07-29T05:04:20.121Z,100403.00
2022-07-29T05:06:49.312Z,100402.19
2022-07-29T05:09:17.230Z,100401.84
2022-07-29T05:11:45.444Z,100403.90
2022-07-29T05:14:13.624Z,100403.79
2022-07-29T05:16:44.504Z,100409.64
2022-07-29T05:19:14.499Z,100409.74
2022-07-29T05:21:42.846Z,100410.29
2022-07-29T05:24:10.871Z,100408.60
2022-07-29T05:26:39.331Z,100404.33
2022-07-29T05:29:07.228Z,100404.58
2022-07-29T05:31:56.063Z,100408.77
2022-07-29T05:34:23.933Z,100410.36
2022-07-29T05:36:52.122Z,100408.39
2022-07-29T05:39:21.763Z,100401.66
2022-07-29T05:41:52.036Z,100400.73
2022-07-29T05:44:21.813Z,100397.28
2022-07-29T05:46:53.651Z,100397.88
2022-07-29T05:49:27.276Z,100398.55
2022-07-29T05:51:55.924Z,100402.92
2022-07-29T05:54:23.706Z,100401.96
2022-07-29T05:56:51.660Z,100405.59
2022-07-29T05:59:20.030Z,100409.72
2022-07-29T06:01:48.617Z,100409.02
2022-07-29T06:04:17.687Z,100407.27
2022-07-29T06:06:46.659Z,100410.05
2022-07-29T06:09:14.981Z,100408.23
2022-07-29T06:11:43.109Z,100405.96
2022-07-29T06:14:11.257Z,100406.02
2022-07-29T06:16:39.246Z,100405.66
2022-07-29T06:19:07.631Z,100400.00
2022-07-29T06:21:38.734Z,100393.83
2022-07-29T06:24:14.602Z,100390.66
2022-07-29T06:26:43.793Z,100392.30
2022-07-29T06:29:12.703Z,100395.89
2022-07-29T06:31:40.626Z,100395.27
2022-07-29T06:34:08.921Z,100396.55
2022-07-29T06:36:37.876Z,100398.39
2022-07-29T06:39:07.959Z,100395.75
2022-07-29T06:41:36.845Z,100399.09
2022-07-29T06:44:11.676Z,100399.20
2022-07-29T06:46:39.708Z,100403.91
2022-07-29T06:49:08.738Z,100405.92
2022-07-29T06:51:37.512Z,100406.35
2022-07-29T06:54:06.832Z,100405.64
2022-07-29T06:56:40.080Z,100407.85
2022-07-29T06:59:10.944Z,100406.52
2022-07-29T07:01:41.589Z,100404.09
2022-07-29T07:04:11.583Z,100400.51
2022-07-29T07:06:39.665Z,100401.05
2022-07-29T07:09:07.774Z,100398.54
2022-07-29T07:11:36.333Z,100400.22
2022-07-29T07:14:04.474Z,100396.48
2022-07-29T07:16:33.144Z,100394.11
2022-07-29T07:19:01.887Z,100393.08
2022-07-29T07:21:31.262Z,100393.91
2022-07-29T07:24:00.448Z,100393.69
2022-07-29T07:26:29.547Z,100385.31
2022-07-29T07:28:58.119Z,100386.81
2022-07-29T07:31:26.581Z,100379.09
2022-07-29T07:33:55.178Z,100379.38
2022-07-29T07:36:23.627Z,100378.30
2022-07-29T07:38:51.505Z,100380.92
2022-07-29T07:41:19.776Z,100379.14
2022-07-29T07:43:48.008Z,100376.42
2022-07-29T07:46:16.313Z,100372.90
2022-07-29T07:48:44.909Z,100370.46
2022-07-29T07:51:12.847Z,100371.04
2022-07-29T07:53:40.983Z,100376.64
2022-07-29T07:56:11.799Z,100379.98
2022-07-29T07:58:40.658Z,100375.00
2022-07-29T08:01:09.707Z,100374.56
2022-07-29T08:03:38.574Z,100372.56
2022-07-29T08:06:06.914Z,100371.16
2022-07-29T08:08:34.984Z,100373.98
2022-07-29T08:11:09.017Z,100376.23
2022-07-29T08:13:39.148Z,100376.20
2022-07-29T08:16:15.962Z,100373.77
2022-07-29T08:18:46.043Z,100372.03
2022-07-29T08:21:16.143Z,100361.77
2022-07-29T08:23:57.650Z,100370.23
2022-07-29T08:26:29.375Z,100373.48
2022-07-29T08:28:57.193Z,100379.49
2022-07-29T08:31:25.129Z,100373.84
2022-07-29T08:33:53.333Z,100373.33
2022-07-29T08:36:22.274Z,100370.48
2022-07-29T08:38:50.691Z,100372.16
2022-07-29T08:41:22.252Z,100371.72
2022-07-29T08:43:51.156Z,100373.42
2022-07-29T08:46:20.248Z,100371.09
2022-07-29T08:48:48.947Z,100373.52
2022-07-29T08:51:26.502Z,100362.00
2022-07-29T08:53:57.402Z,100370.38
2022-07-29T08:56:27.144Z,100368.65
2022-07-29T08:58:56.123Z,100365.55
2022-07-29T09:01:35.740Z,100363.70
2022-07-29T09:04:11.160Z,100363.03
2022-07-29T09:06:45.017Z,100358.95
2022-07-29T09:09:14.838Z,100359.69
2022-07-29T09:11:43.148Z,100354.22
2022-07-29T09:14:13.582Z,100352.02
2022-07-29T09:16:53.444Z,100354.17
2022-07-29T09:19:30.698Z,100349.80
2022-07-29T09:22:00.468Z,100349.17
2022-07-29T09:24:43.395Z,100345.05
2022-07-29T09:27:27.114Z,100343.27
2022-07-29T09:30:05.513Z,100345.72
2022-07-29T09:32:34.896Z,100344.33
2022-07-29T09:35:23.126Z,100339.56
2022-07-29T09:37:52.604Z,100338.23
2022-07-29T09:40:23.516Z,100342.81
2022-07-29T09:42:53.909Z,100332.02
2022-07-29T09:45:34.415Z,100329.30
2022-07-29T09:48:20.406Z,100330.05
2022-07-29T09:50:50.696Z,100328.87
2022-07-29T09:53:48.022Z,100329.66
2022-07-29T09:56:17.073Z,100323.42
2022-07-29T09:58:45.453Z,100318.95
2022-07-29T10:01:15.169Z,100320.88
2022-07-29T10:03:53.296Z,100320.11
2022-07-29T10:06:21.807Z,100317.13
2022-07-29T10:08:50.918Z,100318.55
2022-07-29T10:11:20.453Z,100318.78
2022-07-29T10:13:49.924Z,100316.11
2022-07-29T10:16:18.104Z,100311.67
2022-07-29T10:18:47.871Z,100311.66
2022-07-29T10:21:34.973Z,100310.75
2022-07-29T10:24:06.316Z,100308.01
2022-07-29T10:26:34.649Z,100310.38
2022-07-29T10:29:04.082Z,100305.36
2022-07-29T10:31:45.651Z,100302.35
2022-07-29T10:34:32.609Z,100302.16
2022-07-29T10:37:19.745Z,100304.21
2022-07-29T10:40:34.326Z,100305.45
2022-07-29T10:46:08.666Z,100298.21
2022-07-29T10:48:37.407Z,100298.67
2022-07-29T10:51:09.773Z,100304.23
2022-07-29T10:53:54.302Z,100296.58
2022-07-29T10:56:27.489Z,100292.56
2022-07-29T10:59:25.602Z,100287.58
2022-07-29T11:02:10.674Z,100287.23
2022-07-29T11:04:45.719Z,100288.38
2022-07-29T11:07:17.536Z,100285.35
2022-07-29T11:10:16.677Z,100283.00
2022-07-29T11:12:48.913Z,100281.20
2022-07-29T11:15:22.774Z,100278.73
2022-07-29T11:17:59.419Z,100280.35
2022-07-29T11:20:54.805Z,100281.16
2022-07-29T11:23:42.854Z,100283.06
2022-07-29T11:26:18.825Z,100280.32
2022-07-29T11:28:49.849Z,100279.60
2022-07-29T11:31:33.913Z,100283.68
2022-07-29T11:34:23.589Z,100286.42
2022-07-29T11:37:12.883Z,100288.64
2022-07-29T11:39:44.502Z,100293.44
2022-07-29T11:42:28.366Z,100292.09
2022-07-29T11:45:09.254Z,100291.91
2022-07-29T11:48:28.432Z,100288.39
2022-07-29T11:50:50.317Z,100286.63
2022-07-29T11:53:18.770Z,100285.56
2022-07-29T11:55:51.514Z,100280.41
2022-07-29T11:58:25.251Z,100289.10
2022-07-29T12:00:56.191Z,100289.45
2022-07-29T12:03:35.400Z,100283.70
2022-07-29T12:06:13.409Z,100282.34
2022-07-29T12:08:44.152Z,100280.34
2022-07-29T12:11:20.378Z,100283.29
2022-07-29T12:13:50.547Z,100279.45
2022-07-29T12:16:25.626Z,100282.27
2022-07-29T12:19:02.864Z,100274.84
2022-07-29T12:21:52.350Z,100272.10
2022-07-29T12:24:27.032Z,100271.60
2022-07-29T12:27:00.747Z,100271.95
2022-07-29T12:29:33.701Z,100263.82
2022-07-29T12:32:05.275Z,100260.73
2022-07-29T12:34:35.344Z,100253.53
2022-07-29T12:37:03.533Z,100253.17
2022-07-29T12:39:32.410Z,100257.50
2022-07-29T12:42:04.608Z,100254.08
2022-07-29T12:44:49.371Z,100248.90
2022-07-29T12:47:19.317Z,100246.14
2022-07-29T12:49:50.721Z,100238.38
2022-07-29T12:52:32.433Z,100239.88
2022-07-29T12:55:00.791Z,100239.25
2022-07-29T12:57:29.485Z,100238.08
2022-07-29T13:00:09.060Z,100238.16
2022-07-29T13:02:39.346Z,100233.81
2022-07-29T13:05:11.415Z,100231.23
2022-07-29T13:07:54.325Z,100225.02
2022-07-29T13:10:24.925Z,100224.49
2022-07-29T13:13:16.483Z,100221.28
2022-07-29T13:16:05.913Z,100218.27
2022-07-29T13:18:38.820Z,100216.95
2022-07-29T13:21:18.966Z,100218.75
2022-07-29T13:23:47.385Z,100216.92
2022-07-29T13:26:17.316Z,100215.79
2022-07-29T13:28:45.552Z,100212.95
2022-07-29T13:31:13.600Z,100215.13
2022-07-29T13:33:41.619Z,100209.69
2022-07-29T13:36:09.361Z,100206.34
2022-07-29T13:38:37.147Z,100202.02
2022-07-29T13:41:05.724Z,100194.36
2022-07-29T13:43:34.210Z,100194.89
2022-07-29T13:46:02.129Z,100198.14
2022-07-29T13:48:29.975Z,100200.10
2022-07-29T13:50:57.992Z,100204.35
2022-07-29T13:53:26.811Z,100201.70
2022-07-29T13:55:55.994Z,100202.42
2022-07-29T13:58:24.008Z,100201.35
2022-07-29T14:00:51.748Z,100197.98
2022-07-29T14:03:19.806Z,100198.56
2022-07-29T14:05:47.806Z,100198.94
2022-07-29T14:08:16.235Z,100197.16
2022-07-29T14:10:44.119Z,100193.68
2022-07-29T14:13:24.485Z,100194.34
2022-07-29T14:15:54.046Z,100195.09
2022-07-29T14:18:21.910Z,100196.14
2022-07-29T14:20:50.554Z,100193.21
2022-07-29T14:23:20.252Z,100191.23
2022-07-29T14:25:49.419Z,100185.98
2022-07-29T14:28:17.874Z,100190.13
2022-07-29T14:30:46.271Z,100186.69
2022-07-29T14:33:14.686Z,100187.38
2022-07-29T14:35:42.394Z,100185.32
2022-07-29T14:38:10.495Z,100184.71
2022-07-29T14:40:39.057Z,100183.55
2022-07-29T14:43:07.073Z,100179.90
2022-07-29T14:45:35.316Z,100184.69
2022-07-29T14:48:03.336Z,100185.05
2022-07-29T14:50:31.807Z,100182.30
2022-07-29T14:53:01.818Z,100177.55
2022-07-29T14:55:29.958Z,100171.16
2022-07-29T14:58:07.699Z,100170.70
2022-07-29T15:00:38.144Z,100176.42
2022-07-29T15:03:06.474Z,100169.19
2022-07-29T15:05:39.945Z,100167.38
2022-07-29T15:08:09.178Z,100167.52
2022-07-29T15:10:37.465Z,100169.98
2022-07-29T15:13:06.332Z,100169.27
2022-07-29T15:15:34.383Z,100166.09
2022-07-29T15:18:02.352Z,100163.10
2022-07-29T15:20:31.999Z,100164.45
2022-07-29T15:22:59.863Z,100160.14
2022-07-29T15:25:27.974Z,100161.14
2022-07-29T15:28:01.142Z,100157.86
2022-07-29T15:30:34.057Z,100154.95
2022-07-29T15:33:04.610Z,100150.98
2022-07-29T15:35:33.409Z,100145.73
2022-07-29T15:38:08.954Z,100145.80
2022-07-29T15:40:37.857Z,100149.57
2022-07-29T15:43:07.631Z,100148.10
2022-07-29T15:45:40.488Z,100151.70
2022-07-29T15:48:10.134Z,100154.92
2022-07-29T15:50:47.130Z,100152.20
2022-07-29T15:53:15.311Z,100147.80
2022-07-29T15:55:43.003Z,100144.95
2022-07-29T15:58:13.715Z,100146.61
2022-07-29T16:00:41.584Z,100146.79
2022-07-29T16:03:09.342Z,100147.02
2022-07-29T16:05:37.752Z,100149.52
2022-07-29T16:08:05.654Z,100148.45
2022-07-29T16:10:33.419Z,100140.89
2022-07-29T16:13:01.965Z,100141.63
2022-07-29T16:15:30.102Z,100139.67
2022-07-29T16:17:57.877Z,100137.04
2022-07-29T16:20:25.970Z,100131.66
2022-07-29T16:22:54.251Z,100133.39
2022-07-29T16:25:29.567Z,100134.42
2022-07-29T16:28:06.901Z,100130.22
2022-07-29T16:30:34.948Z,100132.52
2022-07-29T16:33:07.795Z,100127.41
2022-07-29T16:35:40.257Z,100126.45
2022-07-29T16:38:08.141Z,100122.81
2022-07-29T16:40:36.840Z,100123.83
2022-07-29T16:43:05.023Z,100128.48
2022-07-29T16:45:45.587Z,100125.65
2022-07-29T16:48:15.297Z,100130.28
2022-07-29T16:50:46.234Z,100127.54
2022-07-29T16:53:14.022Z,100126.08
2022-07-29T16:55:42.782Z,100127.03
2022-07-29T16:58:11.157Z,100126.84
2022-07-29T17:00:39.113Z,100120.59
2022-07-29T17:03:07.879Z,100120.31
2022-07-29T17:05:52.564Z,100118.06
2022-07-29T17:08:22.992Z,100121.02
2022-07-29T17:10:50.847Z,100119.46
2022-07-29T17:13:18.666Z,100113.98
2022-07-29T17:15:47.117Z,100113.30
2022-07-29T17:18:14.828Z,100113.20
2022-07-29T17:20:42.571Z,100113.03
2022-07-29T17:23:10.875Z,100114.73
2022-07-29T17:25:38.718Z,100115.92
2022-07-29T17:28:06.514Z,100119.20
2022-07-29T17:30:34.965Z,100125.95
2022-07-29T17:33:02.711Z,100125.02
2022-07-29T17:35:49.123Z,100123.11
2022-07-29T17:38:17.704Z,100123.45
2022-07-29T17:40:45.345Z,100126.05
2022-07-29T17:43:13.919Z,100130.94
2022-07-29T17:45:49.469Z,100131.21
2022-07-29T17:48:21.542Z,100135.05
2022-07-29T17:50:52.212Z,100138.45
2022-07-29T17:53:20.154Z,100139.35
2022-07-29T17:55:49.915Z,100143.27
2022-07-29T17:58:17.972Z,100144.84
2022-07-29T18:00:45.744Z,100144.43
2022-07-29T18:03:14.349Z,100150.08
2022-07-29T18:05:42.445Z,100149.41
2022-07-29T18:08:10.440Z,100148.80
2022-07-29T18:10:38.515Z,100146.73
2022-07-29T18:13:07.338Z,100150.05
2022-07-29T18:15:35.047Z,100150.68
2022-07-29T18:18:02.965Z,100150.94
2022-07-29T18:20:32.246Z,100155.20
2022-07-29T18:23:00.609Z,100159.22
2022-07-29T18:25:29.866Z,100160.33
2022-07-29T18:28:00.553Z,100158.28
2022-07-29T18:30:29.835Z,100161.50
2022-07-29T18:33:19.793Z,100162.29
2022-07-29T18:35:49.719Z,100160.78
2022-07-29T18:38:17.843Z,100160.55
2022-07-29T18:40:46.224Z,100158.23
2022-07-29T18:43:15.806Z,100154.19
2022-07-29T18:45:43.690Z,100153.60
2022-07-29T18:48:13.207Z,100156.03
2022-07-29T18:50:42.013Z,100154.46
2022-07-29T18:53:09.872Z,100155.10
2022-07-29T18:55:38.104Z,100156.58
2022-07-29T18:58:07.285Z,100157.11
2022-07-29T19:00:35.600Z,100156.36
2022-07-29T19:03:03.742Z,100154.30
2022-07-29T19:05:32.480Z,100152.61
2022-07-29T19:08:00.588Z,100151.17
2022-07-29T19:10:28.485Z,100156.05
2022-07-29T19:12:56.994Z,100154.10
2022-07-29T19:15:25.578Z,100154.27
2022-07-29T19:17:56.549Z,100153.39
2022-07-29T19:20:27.676Z,100156.41
2022-07-29T19:22:56.354Z,100157.13
2022-07-29T19:25:25.075Z,100161.16
2022-07-29T19:27:54.773Z,100159.89
2022-07-29T19:30:22.909Z,100156.09
2022-07-29T19:32:50.676Z,100154.30
2022-07-29T19:35:28.050Z,100154.21
2022-07-29T19:37:57.852Z,100151.60
2022-07-29T19:40:26.968Z,100148.98
2022-07-29T19:42:55.314Z,100152.23
2022-07-29T19:45:24.715Z,100145.96
2022-07-29T19:47:56.538Z,100147.76
2022-07-29T19:50:27.725Z,100142.84
2022-07-29T19:52:56.938Z,100146.77
2022-07-29T19:55:24.764Z,100148.09
2022-07-29T19:57:55.812Z,100147.23
2022-07-29T20:00:25.146Z,100150.76
2022-07-29T20:02:56.529Z,100156.69
2022-07-29T20:05:27.812Z,100159.79
2022-07-29T20:07:56.333Z,100157.50
2022-07-29T20:10:24.430Z,100159.13
2022-07-29T20:12:53.762Z,100162.13
2022-07-29T20:15:23.645Z,100164.77
2022-07-29T20:17:56.635Z,100167.48
2022-07-29T20:20:26.111Z,100162.73
2022-07-29T20:22:54.547Z,100161.09
2022-07-29T20:25:23.007Z,100159.71
2022-07-29T20:27:52.519Z,100159.83
2022-07-29T20:30:22.177Z,100163.13
2022-07-29T20:32:50.744Z,100168.16
2022-07-29T20:35:20.197Z,100171.80
2022-07-29T20:37:52.425Z,100172.25
2022-07-29T20:40:26.932Z,100172.98
2022-07-29T20:42:55.933Z,100174.86
2022-07-29T20:45:25.044Z,100178.70
2022-07-29T20:47:53.287Z,100177.46
2022-07-29T20:50:23.667Z,100178.23
2022-07-29T20:52:52.759Z,100179.77
2022-07-29T20:55:21.686Z,100180.77
2022-07-29T20:57:49.863Z,100183.35
2022-07-29T21:00:17.953Z,100189.00
2022-07-29T21:02:47.403Z,100188.13
2022-07-29T21:05:15.585Z,100184.20
2022-07-29T21:07:43.388Z,100180.60
2022-07-29T21:10:11.725Z,100182.70
2022-07-29T21:12:40.019Z,100177.00
2022-07-29T21:15:08.384Z,100170.02
2022-07-29T21:17:38.961Z,100159.70
2022-07-29T21:20:08.777Z,100152.21
2022-07-29T21:22:36.574Z,100148.02
2022-07-29T21:25:06.938Z,100148.70
2022-07-29T21:27:53.349Z,100147.98
2022-07-29T21:30:22.135Z,100151.15
2022-07-29T21:32:50.016Z,100145.04
2022-07-29T21:35:58.940Z,100140.27
2022-07-29T21:38:06.252Z,100138.25
2022-07-29T21:40:34.721Z,100137.89
2022-07-29T21:43:02.759Z,100132.31
2022-07-29T21:45:31.037Z,100135.29
2022-07-29T21:48:00.614Z,100143.04
2022-07-29T21:50:28.467Z,100150.66
2022-07-29T21:52:57.658Z,100153.39
2022-07-29T21:55:27.493Z,100147.73
2022-07-29T21:57:57.403Z,100149.91
2022-07-29T22:00:25.887Z,100160.71
2022-07-29T22:02:54.587Z,100164.11
2022-07-29T22:05:23.136Z,100161.38
2022-07-29T22:07:54.567Z,100158.77
2022-07-29T22:10:28.233Z,100146.91
2022-07-29T22:13:01.993Z,100138.79
2022-07-29T22:15:30.848Z,100135.60
2022-07-29T22:18:00.407Z,100131.32
2022-07-29T22:20:28.376Z,100137.59
2022-07-29T22:22:57.277Z,100143.64
2022-07-29T22:25:27.175Z,100148.23
2022-07-29T22:27:55.386Z,100143.83
2022-07-29T22:30:23.136Z,100128.65
2022-07-29T22:32:51.079Z,100117.34
2022-07-29T22:35:18.978Z,100114.14
2022-07-29T22:37:46.962Z,100114.67
2022-07-29T22:40:14.989Z,100118.31
2022-07-29T22:42:44.408Z,100114.61
2022-07-29T22:45:14.094Z,100113.52
2022-07-29T22:47:48.472Z,100109.44
2022-07-29T22:50:17.681Z,100108.75
2022-07-29T22:52:46.997Z,100104.89
2022-07-29T22:55:15.655Z,100098.13
2022-07-29T22:57:43.404Z,100097.12
2022-07-29T23:00:13.595Z,100095.59
2022-07-29T23:02:41.796Z,100095.33
2022-07-29T23:05:10.593Z,100093.73
2022-07-29T23:07:39.364Z,100096.68
2022-07-29T23:10:07.927Z,100100.83
2022-07-29T23:12:35.926Z,100104.30
2022-07-29T23:15:09.480Z,100100.48
2022-07-29T23:17:41.419Z,100091.17
2022-07-29T23:20:10.401Z,100087.98
2022-07-29T23:22:38.249Z,100081.21
2022-07-29T23:25:06.731Z,100080.44
2022-07-29T23:27:34.903Z,100079.27
2022-07-29T23:30:05.304Z,100073.15
2022-07-29T23:32:33.178Z,100074.55
2022-07-29T23:35:01.298Z,100074.54
2022-07-29T23:37:29.085Z,100070.71
2022-07-29T23:39:57.363Z,100075.41
2022-07-29T23:42:25.517Z,100079.73
2022-07-29T23:44:53.763Z,100075.84
2022-07-29T23:47:21.758Z,100074.94
2022-07-29T23:49:50.239Z,100069.27
2022-07-29T23:52:21.362Z,100068.70
2022-07-29T23:54:49.305Z,100061.06
2022-07-29T23:57:18.486Z,100061.20
2022-07-29T23:59:47.549Z,100056.55
